createdAt,value
2019-01-13T00:00:11.761Z,21.45
2019-01-13T00:00:40.148Z,21.45
2019-01-13T00:01:11.783Z,21.45
2019-01-13T00:01:43.408Z,21.44
2019-01-13T00:02:15.014Z,21.45
2019-01-13T00:02:46.660Z,21.46
2019-01-13T00:03:18.272Z,21.47
2019-01-13T00:03:49.917Z,21.47
2019-01-13T00:04:21.576Z,21.46
2019-01-13T00:04:53.195Z,21.45
2019-01-13T00:05:24.812Z,21.46
2019-01-13T00:05:56.402Z,21.45
2019-01-13T00:06:28.015Z,21.45
2019-01-13T00:06:59.640Z,21.43
2019-01-13T00:07:31.246Z,21.41
2019-01-13T00:08:02.858Z,21.40
2019-01-13T00:08:34.458Z,21.39
2019-01-13T00:09:06.075Z,21.39
2019-01-13T00:09:37.684Z,21.37
2019-01-13T00:10:09.300Z,21.37
2019-01-13T00:10:40.914Z,21.39
2019-01-13T00:11:12.531Z,21.37
2019-01-13T00:11:44.148Z,21.40
2019-01-13T00:12:15.770Z,21.39
2019-01-13T00:12:47.425Z,21.40
2019-01-13T00:13:19.034Z,21.40
2019-01-13T00:13:50.695Z,21.40
2019-01-13T00:14:22.317Z,21.39
2019-01-13T00:14:53.926Z,21.39
2019-01-13T00:15:25.541Z,21.40
2019-01-13T00:15:57.153Z,21.41
2019-01-13T00:16:28.753Z,21.42
2019-01-13T00:17:00.360Z,21.42
2019-01-13T00:17:31.979Z,21.42
2019-01-13T00:18:03.600Z,21.41
2019-01-13T00:18:35.269Z,21.41
2019-01-13T00:19:06.877Z,21.41
2019-01-13T00:19:38.493Z,21.42
2019-01-13T00:20:10.117Z,21.42
2019-01-13T00:20:41.795Z,21.43
2019-01-13T00:21:13.403Z,21.43
2019-01-13T00:21:45.025Z,21.44
2019-01-13T00:22:16.636Z,21.48
2019-01-13T00:22:48.257Z,21.49
2019-01-13T00:23:19.875Z,21.40
2019-01-13T00:23:51.508Z,21.36
2019-01-13T00:24:23.136Z,21.30
2019-01-13T00:24:54.755Z,21.26
2019-01-13T00:25:26.367Z,21.29
2019-01-13T00:25:58.017Z,21.12
2019-01-13T00:26:29.623Z,21.34
2019-01-13T00:27:01.221Z,21.33
2019-01-13T00:27:32.834Z,21.34
2019-01-13T00:28:04.456Z,21.34
2019-01-13T00:28:36.071Z,21.34
2019-01-13T00:29:08.125Z,21.33
2019-01-13T00:29:39.364Z,21.32
2019-01-13T00:30:10.978Z,21.32
2019-01-13T00:30:42.596Z,21.32
2019-01-13T00:31:14.193Z,21.33
2019-01-13T00:31:45.789Z,21.33
2019-01-13T00:32:17.406Z,21.32
2019-01-13T00:32:49.024Z,21.32
2019-01-13T00:33:20.622Z,21.32
2019-01-13T00:33:52.290Z,21.32
2019-01-13T00:34:23.890Z,21.32
2019-01-13T00:34:55.495Z,21.32
2019-01-13T00:35:27.115Z,21.31
2019-01-13T00:35:58.724Z,21.30
2019-01-13T00:36:30.327Z,21.31
2019-01-13T00:37:01.943Z,21.31
2019-01-13T00:37:33.555Z,21.33
2019-01-13T00:38:05.163Z,21.33
2019-01-13T00:38:36.770Z,21.32
2019-01-13T00:39:08.423Z,21.33
2019-01-13T00:39:40.070Z,21.35
2019-01-13T00:40:11.701Z,21.35
2019-01-13T00:40:43.310Z,21.37
2019-01-13T00:41:14.980Z,21.16
2019-01-13T00:41:46.584Z,21.36
2019-01-13T00:42:18.192Z,21.36
2019-01-13T00:42:49.812Z,21.36
2019-01-13T00:43:21.407Z,21.35
2019-01-13T00:43:53.019Z,21.39
2019-01-13T00:44:24.619Z,21.38
2019-01-13T00:44:56.224Z,21.40
2019-01-13T00:45:27.832Z,21.41
2019-01-13T00:45:59.424Z,21.41
2019-01-13T00:46:31.080Z,21.41
2019-01-13T00:47:02.738Z,21.40
2019-01-13T00:47:34.343Z,21.39
2019-01-13T00:48:05.966Z,21.38
2019-01-13T00:48:37.593Z,21.37
2019-01-13T00:49:09.202Z,21.36
2019-01-13T00:49:40.815Z,21.34
2019-01-13T00:50:12.418Z,21.31
2019-01-13T00:50:44.043Z,21.32
2019-01-13T00:51:15.646Z,21.31
2019-01-13T00:51:47.308Z,21.30
2019-01-13T00:52:18.922Z,21.28
2019-01-13T00:52:50.533Z,21.27
2019-01-13T00:53:22.179Z,21.27
2019-01-13T00:53:53.786Z,21.27
2019-01-13T00:54:25.408Z,21.27
2019-01-13T00:54:57.028Z,21.27
2019-01-13T00:55:28.634Z,21.25
2019-01-13T00:56:00.255Z,21.24
2019-01-13T00:56:31.881Z,21.25
2019-01-13T00:57:03.486Z,21.26
2019-01-13T00:57:35.097Z,21.25
2019-01-13T00:58:06.742Z,21.24
2019-01-13T00:58:38.343Z,21.24
2019-01-13T00:59:09.956Z,21.02
2019-01-13T00:59:41.579Z,21.24
2019-01-13T01:00:13.194Z,21.24
2019-01-13T01:00:44.799Z,21.26
2019-01-13T01:01:16.404Z,21.24
2019-01-13T01:01:48.046Z,21.28
2019-01-13T01:02:19.668Z,21.29
2019-01-13T01:02:51.288Z,21.30
2019-01-13T01:03:22.888Z,21.31
2019-01-13T01:03:54.551Z,21.31
2019-01-13T01:04:26.161Z,21.32
2019-01-13T01:04:57.771Z,21.31
2019-01-13T01:05:29.373Z,21.32
2019-01-13T01:06:00.986Z,21.12
2019-01-13T01:06:32.590Z,21.34
2019-01-13T01:07:04.222Z,21.35
2019-01-13T01:07:35.835Z,21.34
2019-01-13T01:08:07.440Z,21.34
2019-01-13T01:08:39.055Z,21.35
2019-01-13T01:09:10.703Z,21.35
2019-01-13T01:09:42.307Z,21.36
2019-01-13T01:10:13.915Z,21.37
2019-01-13T01:10:45.521Z,21.38
2019-01-13T01:11:17.118Z,21.38
2019-01-13T01:11:48.740Z,21.38
2019-01-13T01:12:20.333Z,21.38
2019-01-13T01:12:51.956Z,21.38
2019-01-13T01:13:23.581Z,21.39
2019-01-13T01:13:55.209Z,21.37
2019-01-13T01:14:26.820Z,21.37
2019-01-13T01:14:58.427Z,21.36
2019-01-13T01:15:30.029Z,21.35
2019-01-13T01:16:01.638Z,21.35
2019-01-13T01:16:33.245Z,21.34
2019-01-13T01:17:04.860Z,21.33
2019-01-13T01:17:36.463Z,21.32
2019-01-13T01:18:08.080Z,21.30
2019-01-13T01:18:39.701Z,21.29
2019-01-13T01:19:11.339Z,21.28
2019-01-13T01:19:42.960Z,21.27
2019-01-13T01:20:14.583Z,21.26
2019-01-13T01:20:46.200Z,21.25
2019-01-13T01:21:17.865Z,21.06
2019-01-13T01:21:49.484Z,21.25
2019-01-13T01:22:21.092Z,21.22
2019-01-13T01:22:52.695Z,21.22
2019-01-13T01:23:24.317Z,21.22
2019-01-13T01:23:55.938Z,21.21
2019-01-13T01:24:27.590Z,21.20
2019-01-13T01:24:59.185Z,21.20
2019-01-13T01:25:30.786Z,21.20
2019-01-13T01:26:02.390Z,21.19
2019-01-13T01:26:33.984Z,21.19
2019-01-13T01:27:05.608Z,21.19
2019-01-13T01:27:37.255Z,21.20
2019-01-13T01:28:08.861Z,21.20
2019-01-13T01:28:40.517Z,21.21
2019-01-13T01:29:12.134Z,21.01
2019-01-13T01:29:43.733Z,21.22
2019-01-13T01:30:15.353Z,21.23
2019-01-13T01:30:46.964Z,21.24
2019-01-13T01:31:18.566Z,21.25
2019-01-13T01:31:50.170Z,21.27
2019-01-13T01:32:21.778Z,21.28
2019-01-13T01:32:53.404Z,21.29
2019-01-13T01:33:26.040Z,21.28
2019-01-13T01:33:56.689Z,21.27
2019-01-13T01:34:28.339Z,21.27
2019-01-13T01:34:59.950Z,21.26
2019-01-13T01:35:31.586Z,21.25
2019-01-13T01:36:03.195Z,21.23
2019-01-13T01:36:34.803Z,21.25
2019-01-13T01:37:06.409Z,21.27
2019-01-13T01:37:38.018Z,21.28
2019-01-13T01:38:09.627Z,21.30
2019-01-13T01:38:41.230Z,21.31
2019-01-13T01:39:12.828Z,21.30
2019-01-13T01:39:44.469Z,21.30
2019-01-13T01:40:16.058Z,21.31
2019-01-13T01:40:47.648Z,21.33
2019-01-13T01:41:19.252Z,21.34
2019-01-13T01:41:51.089Z,21.34
2019-01-13T01:42:22.578Z,21.33
2019-01-13T01:42:54.186Z,21.34
2019-01-13T01:43:25.824Z,21.34
2019-01-13T01:43:57.432Z,21.33
2019-01-13T01:44:29.063Z,21.31
2019-01-13T01:45:00.704Z,21.30
2019-01-13T01:45:32.306Z,21.28
2019-01-13T01:46:04.008Z,21.25
2019-01-13T01:46:35.618Z,21.24
2019-01-13T01:47:07.213Z,21.23
2019-01-13T01:47:38.824Z,21.21
2019-01-13T01:48:10.440Z,21.20
2019-01-13T01:48:42.093Z,21.20
2019-01-13T01:49:13.712Z,21.20
2019-01-13T01:49:45.315Z,21.00
2019-01-13T01:50:16.936Z,21.18
2019-01-13T01:50:48.570Z,21.19
2019-01-13T01:51:20.198Z,21.18
2019-01-13T01:51:51.836Z,21.18
2019-01-13T01:52:23.436Z,21.17
2019-01-13T01:52:55.055Z,21.16
2019-01-13T01:53:26.657Z,21.15
2019-01-13T01:53:58.332Z,21.16
2019-01-13T01:54:29.954Z,21.16
2019-01-13T01:55:01.569Z,21.16
2019-01-13T01:55:33.178Z,21.17
2019-01-13T01:56:04.799Z,21.17
2019-01-13T01:56:36.403Z,21.17
2019-01-13T01:57:08.006Z,21.18
2019-01-13T01:57:39.624Z,21.18
2019-01-13T01:58:11.248Z,21.19
2019-01-13T01:58:42.843Z,21.19
2019-01-13T01:59:14.514Z,21.24
2019-01-13T01:59:46.136Z,21.25
2019-01-13T02:00:17.747Z,21.25
2019-01-13T02:00:49.397Z,21.25
2019-01-13T02:01:21.010Z,21.26
2019-01-13T02:01:52.620Z,21.25
2019-01-13T02:02:24.234Z,21.25
2019-01-13T02:02:55.869Z,21.25
2019-01-13T02:03:27.514Z,21.25
2019-01-13T02:03:59.113Z,21.26
2019-01-13T02:04:30.806Z,21.26
2019-01-13T02:05:02.431Z,21.27
2019-01-13T02:05:34.034Z,21.28
2019-01-13T02:06:05.715Z,21.28
2019-01-13T02:06:37.336Z,21.28
2019-01-13T02:07:08.997Z,21.28
2019-01-13T02:07:40.647Z,21.28
2019-01-13T02:08:12.322Z,21.28
2019-01-13T02:08:43.921Z,21.27
2019-01-13T02:09:15.540Z,21.28
2019-01-13T02:09:47.167Z,21.29
2019-01-13T02:10:18.775Z,21.30
2019-01-13T02:10:50.418Z,21.29
2019-01-13T02:11:22.026Z,21.28
2019-01-13T02:11:53.627Z,21.27
2019-01-13T02:12:25.288Z,21.26
2019-01-13T02:12:56.913Z,21.26
2019-01-13T02:13:28.513Z,21.25
2019-01-13T02:14:00.129Z,21.24
2019-01-13T02:14:31.782Z,21.23
2019-01-13T02:15:03.375Z,21.21
2019-01-13T02:15:34.975Z,21.20
2019-01-13T02:16:06.656Z,21.19
2019-01-13T02:16:38.273Z,21.18
2019-01-13T02:17:09.902Z,21.16
2019-01-13T02:17:41.516Z,21.15
2019-01-13T02:18:13.135Z,21.14
2019-01-13T02:18:45.189Z,21.11
2019-01-13T02:19:16.785Z,21.10
2019-01-13T02:19:48.404Z,21.10
2019-01-13T02:20:19.998Z,21.11
2019-01-13T02:20:51.602Z,21.10
2019-01-13T02:21:23.258Z,21.10
2019-01-13T02:21:54.859Z,21.11
2019-01-13T02:22:26.480Z,21.10
2019-01-13T02:22:58.101Z,21.12
2019-01-13T02:23:29.750Z,21.12
2019-01-13T02:24:01.358Z,21.11
2019-01-13T02:24:32.967Z,21.11
2019-01-13T02:25:04.591Z,21.10
2019-01-13T02:25:36.211Z,21.11
2019-01-13T02:26:07.817Z,21.12
2019-01-13T02:26:39.430Z,21.12
2019-01-13T02:27:11.043Z,21.12
2019-01-13T02:27:42.654Z,21.13
2019-01-13T02:28:14.254Z,21.13
2019-01-13T02:28:46.197Z,20.93
2019-01-13T02:29:17.838Z,21.13
2019-01-13T02:29:49.457Z,21.13
2019-01-13T02:30:21.062Z,21.12
2019-01-13T02:30:52.683Z,21.13
2019-01-13T02:31:24.322Z,21.13
2019-01-13T02:31:55.931Z,21.14
2019-01-13T02:32:27.538Z,21.13
2019-01-13T02:32:59.145Z,21.12
2019-01-13T02:33:30.790Z,21.13
2019-01-13T02:34:02.407Z,21.13
2019-01-13T02:34:34.019Z,21.11
2019-01-13T02:35:05.655Z,21.11
2019-01-13T02:35:37.268Z,21.09
2019-01-13T02:36:08.935Z,21.09
2019-01-13T02:36:40.570Z,21.09
2019-01-13T02:37:12.224Z,21.09
2019-01-13T02:37:43.841Z,21.09
2019-01-13T02:38:15.444Z,21.09
2019-01-13T02:38:47.058Z,21.08
2019-01-13T02:39:18.661Z,21.07
2019-01-13T02:39:50.249Z,21.07
2019-01-13T02:40:21.912Z,21.06
2019-01-13T02:40:53.548Z,21.07
2019-01-13T02:41:25.149Z,21.07
2019-01-13T02:41:56.758Z,21.06
2019-01-13T02:42:28.362Z,21.06
2019-01-13T02:42:59.970Z,21.05
2019-01-13T02:43:31.584Z,21.05
2019-01-13T02:44:03.185Z,21.05
2019-01-13T02:44:34.793Z,21.06
2019-01-13T02:45:06.419Z,21.05
2019-01-13T02:45:38.027Z,21.06
2019-01-13T02:46:09.685Z,21.07
2019-01-13T02:46:41.295Z,21.07
2019-01-13T02:47:12.922Z,21.10
2019-01-13T02:47:44.530Z,21.12
2019-01-13T02:48:16.136Z,21.14
2019-01-13T02:48:47.738Z,21.17
2019-01-13T02:49:19.334Z,21.18
2019-01-13T02:49:50.953Z,21.20
2019-01-13T02:50:22.618Z,21.22
2019-01-13T02:50:54.263Z,21.22
2019-01-13T02:51:25.886Z,21.25
2019-01-13T02:51:57.497Z,21.27
2019-01-13T02:52:29.103Z,21.30
2019-01-13T02:53:00.727Z,21.34
2019-01-13T02:53:32.335Z,21.30
2019-01-13T02:54:03.943Z,21.38
2019-01-13T02:54:35.604Z,21.41
2019-01-13T02:55:07.218Z,21.46
2019-01-13T02:55:38.809Z,21.50
2019-01-13T02:56:10.424Z,21.46
2019-01-13T02:56:42.088Z,21.41
2019-01-13T02:57:13.679Z,21.37
2019-01-13T02:57:45.276Z,21.31
2019-01-13T02:58:16.890Z,21.29
2019-01-13T02:58:48.530Z,21.30
2019-01-13T02:59:20.144Z,21.33
2019-01-13T02:59:51.760Z,21.37
2019-01-13T03:00:23.388Z,21.41
2019-01-13T03:00:57.239Z,21.46
2019-01-13T03:01:26.702Z,21.50
2019-01-13T03:01:58.381Z,21.53
2019-01-13T03:02:30.024Z,21.55
2019-01-13T03:03:01.654Z,21.58
2019-01-13T03:03:33.266Z,21.62
2019-01-13T03:04:04.874Z,21.65
2019-01-13T03:04:36.507Z,21.67
2019-01-13T03:05:08.108Z,21.70
2019-01-13T03:05:39.697Z,21.51
2019-01-13T03:06:11.352Z,21.72
2019-01-13T03:06:42.966Z,21.74
2019-01-13T03:07:14.580Z,21.76
2019-01-13T03:07:46.248Z,21.78
2019-01-13T03:08:17.914Z,21.80
2019-01-13T03:08:49.551Z,21.81
2019-01-13T03:09:21.176Z,21.82
2019-01-13T03:09:52.783Z,21.87
2019-01-13T03:10:24.395Z,21.90
2019-01-13T03:10:56.017Z,21.91
2019-01-13T03:11:27.684Z,21.90
2019-01-13T03:11:59.335Z,21.94
2019-01-13T03:12:30.958Z,21.97
2019-01-13T03:13:02.553Z,22.00
2019-01-13T03:13:34.159Z,22.01
2019-01-13T03:14:05.789Z,22.03
2019-01-13T03:14:37.399Z,22.05
2019-01-13T03:15:09.055Z,22.07
2019-01-13T03:15:40.658Z,22.06
2019-01-13T03:16:12.253Z,22.08
2019-01-13T03:16:43.908Z,22.08
2019-01-13T03:17:15.505Z,22.11
2019-01-13T03:17:47.127Z,22.13
2019-01-13T03:18:18.730Z,22.13
2019-01-13T03:18:50.641Z,22.14
2019-01-13T03:19:22.243Z,22.14
2019-01-13T03:19:53.855Z,22.15
2019-01-13T03:20:25.463Z,22.18
2019-01-13T03:20:57.089Z,22.18
2019-01-13T03:21:28.693Z,22.18
2019-01-13T03:22:00.304Z,22.18
2019-01-13T03:22:31.969Z,22.19
2019-01-13T03:23:03.586Z,22.20
2019-01-13T03:23:35.198Z,22.22
2019-01-13T03:24:06.827Z,22.21
2019-01-13T03:24:38.435Z,22.21
2019-01-13T03:25:11.988Z,22.22
2019-01-13T03:25:41.708Z,22.23
2019-01-13T03:26:13.301Z,22.25
2019-01-13T03:26:44.917Z,22.24
2019-01-13T03:27:16.517Z,22.24
2019-01-13T03:27:48.259Z,22.23
2019-01-13T03:28:19.900Z,22.23
2019-01-13T03:28:51.495Z,22.22
2019-01-13T03:29:23.123Z,22.22
2019-01-13T03:29:54.744Z,22.21
2019-01-13T03:30:26.375Z,22.22
2019-01-13T03:31:10.660Z,22.23
2019-01-13T03:31:29.667Z,22.22
2019-01-13T03:32:01.278Z,22.24
2019-01-13T03:32:32.902Z,22.26
2019-01-13T03:33:04.497Z,22.26
2019-01-13T03:33:36.093Z,22.27
2019-01-13T03:34:07.750Z,22.28
2019-01-13T03:34:39.358Z,22.27
2019-01-13T03:35:10.958Z,22.25
2019-01-13T03:35:42.567Z,22.25
2019-01-13T03:36:14.178Z,22.26
2019-01-13T03:36:45.859Z,22.25
2019-01-13T03:37:17.462Z,22.25
2019-01-13T03:37:49.088Z,22.25
2019-01-13T03:38:20.749Z,22.26
2019-01-13T03:38:52.361Z,22.24
2019-01-13T03:39:24.020Z,22.25
2019-01-13T03:39:55.644Z,22.24
2019-01-13T03:40:27.244Z,22.24
2019-01-13T03:40:58.860Z,22.25
2019-01-13T03:41:30.511Z,22.25
2019-01-13T03:42:02.115Z,22.26
2019-01-13T03:42:33.724Z,22.31
2019-01-13T03:43:05.332Z,22.32
2019-01-13T03:43:36.954Z,22.33
2019-01-13T03:44:08.554Z,22.33
2019-01-13T03:44:40.152Z,22.30
2019-01-13T03:45:11.759Z,22.30
2019-01-13T03:45:43.370Z,22.30
2019-01-13T03:46:14.971Z,22.29
2019-01-13T03:46:46.570Z,22.29
2019-01-13T03:47:18.188Z,22.27
2019-01-13T03:47:49.840Z,22.26
2019-01-13T03:48:21.442Z,22.24
2019-01-13T03:48:53.065Z,22.24
2019-01-13T03:49:24.667Z,22.24
2019-01-13T03:49:56.292Z,22.21
2019-01-13T03:50:27.898Z,22.20
2019-01-13T03:50:59.516Z,22.19
2019-01-13T03:51:31.135Z,22.18
2019-01-13T03:52:02.726Z,22.18
2019-01-13T03:52:34.318Z,22.18
2019-01-13T03:53:05.933Z,22.17
2019-01-13T03:53:37.547Z,22.18
2019-01-13T03:54:09.163Z,22.17
2019-01-13T03:54:40.805Z,22.15
2019-01-13T03:55:12.412Z,22.14
2019-01-13T03:55:44.040Z,22.14
2019-01-13T03:56:15.645Z,22.12
2019-01-13T03:56:47.253Z,22.11
2019-01-13T03:57:18.855Z,22.11
2019-01-13T03:57:50.511Z,22.10
2019-01-13T03:58:22.114Z,22.10
2019-01-13T03:58:53.731Z,22.09
2019-01-13T03:59:25.325Z,22.08
2019-01-13T03:59:56.936Z,22.07
2019-01-13T04:00:28.628Z,22.07
2019-01-13T04:01:00.247Z,22.07
2019-01-13T04:01:31.858Z,22.05
2019-01-13T04:02:03.480Z,22.03
2019-01-13T04:02:35.097Z,22.03
2019-01-13T04:03:06.715Z,22.02
2019-01-13T04:03:38.319Z,21.99
2019-01-13T04:04:09.920Z,21.98
2019-01-13T04:04:41.531Z,21.96
2019-01-13T04:05:13.128Z,21.96
2019-01-13T04:05:44.737Z,21.94
2019-01-13T04:06:16.342Z,21.93
2019-01-13T04:06:47.956Z,21.91
2019-01-13T04:07:19.569Z,21.90
2019-01-13T04:07:51.175Z,21.89
2019-01-13T04:08:22.841Z,21.87
2019-01-13T04:08:54.435Z,21.85
2019-01-13T04:09:26.042Z,21.82
2019-01-13T04:09:57.648Z,21.85
2019-01-13T04:10:29.235Z,21.82
2019-01-13T04:11:00.849Z,21.80
2019-01-13T04:11:32.473Z,21.77
2019-01-13T04:12:04.068Z,21.74
2019-01-13T04:12:35.668Z,21.75
2019-01-13T04:13:07.274Z,21.74
2019-01-13T04:13:38.879Z,21.71
2019-01-13T04:14:10.496Z,21.67
2019-01-13T04:14:42.110Z,21.64
2019-01-13T04:15:13.730Z,21.62
2019-01-13T04:15:45.330Z,21.62
2019-01-13T04:16:16.935Z,21.60
2019-01-13T04:16:48.552Z,21.59
2019-01-13T04:17:20.168Z,21.58
2019-01-13T04:17:51.778Z,21.60
2019-01-13T04:18:23.392Z,21.60
2019-01-13T04:18:55.049Z,21.58
2019-01-13T04:19:26.673Z,21.57
2019-01-13T04:19:58.281Z,21.46
2019-01-13T04:20:29.873Z,21.55
2019-01-13T04:21:01.544Z,21.55
2019-01-13T04:21:33.151Z,21.55
2019-01-13T04:22:04.768Z,21.54
2019-01-13T04:22:36.379Z,21.52
2019-01-13T04:23:07.995Z,21.51
2019-01-13T04:23:39.617Z,21.51
2019-01-13T04:24:11.222Z,21.50
2019-01-13T04:24:42.827Z,21.48
2019-01-13T04:25:14.444Z,21.47
2019-01-13T04:25:46.083Z,21.46
2019-01-13T04:26:17.736Z,21.45
2019-01-13T04:26:49.358Z,21.45
2019-01-13T04:27:20.979Z,21.46
2019-01-13T04:27:52.585Z,21.45
2019-01-13T04:28:24.208Z,21.46
2019-01-13T04:28:55.809Z,21.46
2019-01-13T04:29:27.429Z,21.46
2019-01-13T04:29:59.025Z,21.44
2019-01-13T04:30:30.648Z,21.42
2019-01-13T04:31:02.307Z,21.42
2019-01-13T04:31:33.928Z,21.41
2019-01-13T04:32:05.524Z,21.41
2019-01-13T04:32:37.131Z,21.40
2019-01-13T04:33:08.757Z,21.38
2019-01-13T04:33:40.384Z,21.39
2019-01-13T04:34:11.995Z,21.39
2019-01-13T04:34:43.617Z,21.38
2019-01-13T04:35:15.231Z,21.38
2019-01-13T04:35:46.839Z,21.39
2019-01-13T04:36:18.491Z,21.38
2019-01-13T04:36:50.112Z,21.38
2019-01-13T04:37:21.746Z,21.39
2019-01-13T04:37:53.401Z,21.39
2019-01-13T04:38:25.013Z,21.41
2019-01-13T04:38:56.632Z,21.42
2019-01-13T04:39:28.237Z,21.43
2019-01-13T04:39:59.860Z,21.45
2019-01-13T04:40:31.462Z,21.44
2019-01-13T04:41:03.075Z,21.46
2019-01-13T04:41:34.718Z,21.45
2019-01-13T04:42:06.349Z,21.43
2019-01-13T04:42:37.957Z,21.44
2019-01-13T04:43:09.567Z,21.46
2019-01-13T04:43:41.172Z,21.47
2019-01-13T04:44:12.761Z,21.50
2019-01-13T04:44:44.362Z,21.52
2019-01-13T04:45:15.981Z,21.56
2019-01-13T04:45:47.586Z,21.56
2019-01-13T04:46:19.195Z,21.58
2019-01-13T04:46:50.842Z,21.59
2019-01-13T04:47:22.466Z,21.58
2019-01-13T04:47:54.081Z,21.57
2019-01-13T04:48:25.688Z,21.61
2019-01-13T04:48:57.299Z,21.41
2019-01-13T04:49:28.904Z,21.68
2019-01-13T04:50:00.520Z,21.69
2019-01-13T04:50:32.154Z,21.70
2019-01-13T04:51:03.767Z,21.72
2019-01-13T04:51:35.409Z,21.73
2019-01-13T04:52:07.026Z,21.74
2019-01-13T04:52:38.653Z,21.74
2019-01-13T04:53:10.258Z,21.75
2019-01-13T04:53:41.862Z,21.75
2019-01-13T04:54:13.465Z,21.76
2019-01-13T04:54:45.101Z,21.77
2019-01-13T04:55:16.707Z,21.77
2019-01-13T04:55:48.319Z,21.77
2019-01-13T04:56:19.931Z,21.78
2019-01-13T04:56:51.557Z,21.78
2019-01-13T04:57:23.181Z,21.79
2019-01-13T04:57:54.805Z,21.79
2019-01-13T04:58:26.445Z,21.80
2019-01-13T04:58:58.040Z,21.79
2019-01-13T04:59:29.657Z,21.80
2019-01-13T05:00:01.272Z,21.80
2019-01-13T05:00:32.878Z,21.82
2019-01-13T05:01:04.575Z,21.84
2019-01-13T05:01:36.959Z,21.88
2019-01-13T05:02:07.876Z,21.88
2019-01-13T05:02:39.483Z,21.88
2019-01-13T05:03:11.084Z,21.89
2019-01-13T05:03:42.691Z,21.90
2019-01-13T05:04:14.295Z,21.89
2019-01-13T05:04:45.907Z,21.92
2019-01-13T05:05:17.507Z,21.93
2019-01-13T05:05:49.125Z,21.93
2019-01-13T05:06:20.770Z,21.93
2019-01-13T05:06:52.363Z,21.93
2019-01-13T05:07:23.967Z,21.92
2019-01-13T05:07:55.583Z,21.92
2019-01-13T05:08:27.266Z,21.91
2019-01-13T05:08:58.866Z,21.91
2019-01-13T05:09:30.473Z,21.93
2019-01-13T05:10:02.077Z,21.94
2019-01-13T05:10:33.690Z,21.96
2019-01-13T05:11:05.300Z,21.98
2019-01-13T05:11:36.910Z,21.99
2019-01-13T05:12:08.536Z,21.99
2019-01-13T05:12:40.151Z,21.98
2019-01-13T05:13:11.751Z,21.97
2019-01-13T05:13:43.412Z,21.96
2019-01-13T05:14:15.013Z,21.94
2019-01-13T05:14:46.633Z,21.93
2019-01-13T05:15:18.245Z,21.85
2019-01-13T05:15:49.872Z,21.93
2019-01-13T05:16:21.488Z,21.92
2019-01-13T05:16:53.147Z,21.91
2019-01-13T05:17:24.811Z,21.92
2019-01-13T05:17:56.421Z,21.92
2019-01-13T05:18:28.038Z,21.93
2019-01-13T05:18:59.706Z,21.93
2019-01-13T05:19:31.315Z,21.94
2019-01-13T05:20:02.927Z,21.93
2019-01-13T05:20:34.531Z,21.92
2019-01-13T05:21:06.164Z,21.92
2019-01-13T05:21:37.789Z,21.92
2019-01-13T05:22:09.393Z,21.94
2019-01-13T05:22:41.029Z,21.95
2019-01-13T05:23:12.630Z,21.96
2019-01-13T05:23:44.239Z,21.96
2019-01-13T05:24:15.864Z,21.97
2019-01-13T05:24:47.467Z,21.98
2019-01-13T05:25:19.088Z,21.97
2019-01-13T05:25:50.713Z,21.96
2019-01-13T05:26:22.363Z,21.95
2019-01-13T05:26:53.980Z,21.94
2019-01-13T05:27:25.587Z,21.94
2019-01-13T05:27:57.190Z,21.91
2019-01-13T05:28:28.799Z,21.92
2019-01-13T05:29:00.410Z,21.92
2019-01-13T05:29:32.049Z,21.92
2019-01-13T05:30:03.658Z,21.93
2019-01-13T05:30:35.257Z,21.91
2019-01-13T05:31:06.863Z,21.91
2019-01-13T05:31:42.180Z,21.92
2019-01-13T05:32:10.157Z,21.90
2019-01-13T05:32:41.777Z,21.90
2019-01-13T05:33:13.376Z,21.90
2019-01-13T05:33:44.977Z,21.90
2019-01-13T05:34:16.598Z,21.90
2019-01-13T05:34:48.256Z,21.90
2019-01-13T05:35:19.929Z,21.90
2019-01-13T05:35:51.532Z,21.89
2019-01-13T05:36:23.146Z,21.85
2019-01-13T05:36:54.817Z,21.84
2019-01-13T05:37:26.419Z,21.81
2019-01-13T05:37:58.017Z,21.79
2019-01-13T05:38:29.619Z,21.78
2019-01-13T05:39:01.268Z,21.76
2019-01-13T05:39:32.880Z,21.76
2019-01-13T05:40:04.488Z,21.74
2019-01-13T05:40:36.098Z,21.72
2019-01-13T05:41:07.711Z,21.72
2019-01-13T05:41:39.360Z,21.70
2019-01-13T05:42:11.028Z,21.69
2019-01-13T05:42:42.645Z,21.68
2019-01-13T05:43:14.255Z,21.67
2019-01-13T05:43:45.859Z,21.66
2019-01-13T05:44:17.463Z,21.65
2019-01-13T05:44:49.054Z,21.62
2019-01-13T05:45:20.672Z,21.63
2019-01-13T05:45:52.285Z,21.62
2019-01-13T05:46:23.900Z,21.61
2019-01-13T05:46:55.510Z,21.61
2019-01-13T05:47:27.150Z,21.60
2019-01-13T05:47:58.740Z,21.59
2019-01-13T05:48:30.354Z,21.59
2019-01-13T05:49:01.958Z,21.59
2019-01-13T05:49:33.582Z,21.59
2019-01-13T05:50:05.190Z,21.58
2019-01-13T05:50:36.785Z,21.58
2019-01-13T05:51:08.392Z,21.57
2019-01-13T05:51:40.039Z,21.54
2019-01-13T05:52:11.660Z,21.52
2019-01-13T05:52:43.277Z,21.50
2019-01-13T05:53:14.876Z,21.51
2019-01-13T05:53:46.477Z,21.50
2019-01-13T05:54:18.080Z,21.49
2019-01-13T05:54:49.693Z,21.50
2019-01-13T05:55:21.316Z,21.49
2019-01-13T05:55:52.920Z,21.49
2019-01-13T05:56:24.561Z,21.50
2019-01-13T05:56:56.150Z,21.48
2019-01-13T05:57:27.789Z,21.47
2019-01-13T05:57:59.394Z,21.47
2019-01-13T05:58:30.992Z,21.48
2019-01-13T05:59:02.656Z,21.48
2019-01-13T05:59:34.367Z,21.48
2019-01-13T06:00:05.984Z,21.47
2019-01-13T06:00:37.589Z,21.46
2019-01-13T06:01:09.194Z,21.46
2019-01-13T06:01:40.806Z,21.45
2019-01-13T06:02:12.411Z,21.44
2019-01-13T06:02:44.005Z,21.44
2019-01-13T06:03:15.614Z,21.45
2019-01-13T06:03:47.232Z,21.45
2019-01-13T06:04:18.835Z,21.45
2019-01-13T06:04:50.434Z,21.45
2019-01-13T06:05:22.039Z,21.47
2019-01-13T06:05:53.655Z,21.46
2019-01-13T06:06:25.263Z,21.45
2019-01-13T06:06:56.856Z,21.46
2019-01-13T06:07:28.483Z,21.44
2019-01-13T06:08:00.110Z,21.45
2019-01-13T06:08:31.712Z,21.47
2019-01-13T06:09:03.317Z,21.48
2019-01-13T06:09:34.922Z,21.48
2019-01-13T06:10:06.540Z,21.48
2019-01-13T06:10:38.190Z,21.47
2019-01-13T06:11:09.801Z,21.48
2019-01-13T06:11:41.404Z,21.49
2019-01-13T06:12:13.045Z,21.49
2019-01-13T06:12:44.658Z,21.51
2019-01-13T06:13:16.280Z,21.53
2019-01-13T06:13:47.901Z,21.56
2019-01-13T06:14:19.518Z,21.58
2019-01-13T06:14:51.128Z,21.57
2019-01-13T06:15:22.747Z,21.59
2019-01-13T06:15:54.368Z,21.60
2019-01-13T06:16:25.974Z,21.61
2019-01-13T06:16:57.613Z,21.61
2019-01-13T06:17:29.232Z,21.61
2019-01-13T06:18:00.835Z,21.62
2019-01-13T06:18:32.450Z,21.63
2019-01-13T06:19:04.044Z,21.64
2019-01-13T06:19:35.666Z,21.65
2019-01-13T06:20:07.274Z,21.64
2019-01-13T06:20:38.891Z,21.65
2019-01-13T06:21:10.503Z,21.67
2019-01-13T06:21:42.104Z,21.68
2019-01-13T06:22:13.706Z,21.69
2019-01-13T06:22:45.341Z,21.70
2019-01-13T06:23:16.941Z,21.71
2019-01-13T06:23:48.552Z,21.73
2019-01-13T06:24:20.146Z,21.76
2019-01-13T06:24:51.770Z,21.79
2019-01-13T06:25:23.424Z,21.82
2019-01-13T06:25:55.049Z,21.85
2019-01-13T06:26:26.674Z,21.85
2019-01-13T06:26:58.282Z,21.86
2019-01-13T06:27:29.893Z,21.88
2019-01-13T06:28:01.547Z,21.91
2019-01-13T06:28:33.154Z,21.93
2019-01-13T06:29:04.772Z,21.94
2019-01-13T06:29:36.397Z,21.95
2019-01-13T06:30:08.919Z,21.94
2019-01-13T06:30:39.690Z,21.94
2019-01-13T06:31:11.306Z,21.92
2019-01-13T06:31:42.916Z,21.93
2019-01-13T06:32:14.536Z,21.92
2019-01-13T06:32:46.164Z,21.89
2019-01-13T06:33:17.798Z,21.87
2019-01-13T06:33:49.416Z,21.85
2019-01-13T06:34:21.043Z,21.82
2019-01-13T06:34:52.661Z,21.79
2019-01-13T06:35:24.277Z,21.77
2019-01-13T06:35:55.896Z,21.74
2019-01-13T06:36:27.513Z,21.72
2019-01-13T06:36:59.120Z,21.70
2019-01-13T06:37:30.733Z,21.69
2019-01-13T06:38:02.356Z,21.67
2019-01-13T06:38:34.017Z,21.66
2019-01-13T06:39:05.640Z,21.64
2019-01-13T06:39:37.238Z,21.62
2019-01-13T06:40:08.846Z,21.61
2019-01-13T06:40:40.460Z,21.61
2019-01-13T06:41:12.078Z,21.60
2019-01-13T06:41:43.687Z,21.59
2019-01-13T06:42:15.313Z,21.58
2019-01-13T06:42:46.935Z,21.58
2019-01-13T06:43:18.572Z,21.59
2019-01-13T06:43:50.188Z,21.57
2019-01-13T06:44:21.806Z,21.57
2019-01-13T06:44:53.401Z,21.57
2019-01-13T06:45:25.006Z,21.58
2019-01-13T06:45:56.609Z,21.57
2019-01-13T06:46:28.202Z,21.57
2019-01-13T06:46:59.806Z,21.59